createdAt,value
2019-04-05T00:00:30.510Z,999.8
2019-04-05T00:01:31.904Z,999.8
2019-04-05T00:02:33.437Z,999.9
2019-04-05T00:03:34.838Z,999.8
2019-04-05T00:04:36.523Z,999.8
2019-04-05T00:05:37.915Z,999.9
2019-04-05T00:06:39.609Z,999.8
2019-04-05T00:07:41.003Z,999.8
2019-04-05T00:08:42.400Z,999.8
2019-04-05T00:09:43.932Z,999.8
2019-04-05T00:10:45.326Z,999.8
2019-04-05T00:11:46.728Z,999.8
2019-04-05T00:12:48.252Z,999.9
2019-04-05T00:13:49.644Z,999.8
2019-04-05T00:14:51.088Z,999.9
2019-04-05T00:15:52.781Z,999.8
2019-04-05T00:16:54.186Z,999.8
2019-04-05T00:17:55.579Z,999.8
2019-04-05T00:18:57.099Z,999.8
2019-04-05T00:19:58.491Z,999.8
2019-04-05T00:20:59.885Z,999.8
2019-04-05T00:22:01.421Z,999.8
2019-04-05T00:23:02.819Z,999.8
2019-04-05T00:24:04.509Z,999.7
2019-04-05T00:25:05.900Z,999.8
2019-04-05T00:26:07.592Z,999.8
2019-04-05T00:27:08.986Z,999.8
2019-04-05T00:28:10.692Z,999.8
2019-04-05T00:29:12.078Z,999.8
2019-04-05T00:30:13.833Z,999.8
2019-04-05T00:31:15.225Z,999.8
2019-04-05T00:32:16.850Z,999.8
2019-04-05T00:33:18.248Z,999.7
2019-04-05T00:34:19.935Z,999.7
2019-04-05T00:35:22.348Z,999.7
2019-04-05T00:36:24.046Z,999.8
2019-04-05T00:37:25.438Z,999.8
2019-04-05T00:38:27.133Z,999.7
2019-04-05T00:39:28.527Z,999.7
2019-04-05T00:40:30.231Z,999.7
2019-04-05T00:41:33.032Z,999.7
2019-04-05T00:42:32.981Z,999.7
2019-04-05T00:43:34.538Z,999.8
2019-04-05T00:44:35.930Z,999.8
2019-04-05T00:45:37.324Z,999.8
2019-04-05T00:46:38.861Z,999.8
2019-04-05T00:47:40.255Z,999.8
2019-04-05T00:48:41.660Z,999.8
2019-04-05T00:49:43.182Z,999.8
2019-04-05T00:50:44.575Z,999.8
2019-04-05T00:51:45.967Z,999.9
2019-04-05T00:52:47.505Z,999.8
2019-04-05T00:53:48.899Z,999.9
2019-04-05T00:54:50.591Z,999.9
2019-04-05T00:55:51.985Z,999.9
2019-04-05T00:56:53.675Z,999.9
2019-04-05T00:57:55.068Z,999.9
2019-04-05T00:58:56.762Z,999.8
2019-04-05T00:59:58.151Z,999.9
2019-04-05T01:00:59.847Z,999.9
2019-04-05T01:02:01.240Z,999.9
2019-04-05T01:03:02.930Z,999.9
2019-04-05T01:04:04.321Z,999.9
2019-04-05T01:05:06.014Z,999.8
2019-04-05T01:06:07.410Z,999.8
2019-04-05T01:07:09.102Z,999.8
2019-04-05T01:08:10.495Z,999.7
2019-04-05T01:09:11.961Z,999.7
2019-04-05T01:10:13.350Z,999.7
2019-04-05T01:11:14.742Z,999.7
2019-04-05T01:12:16.303Z,999.8
2019-04-05T01:13:17.696Z,999.7
2019-04-05T01:14:19.088Z,999.7
2019-04-05T01:15:20.474Z,999.7
2019-04-05T01:16:21.870Z,999.7
2019-04-05T01:17:25.167Z,999.7
2019-04-05T01:18:24.859Z,999.7
2019-04-05T01:19:26.254Z,999.8
2019-04-05T01:20:27.831Z,999.8
2019-04-05T01:21:29.223Z,999.7
2019-04-05T01:22:30.615Z,999.8
2019-04-05T01:23:32.149Z,999.8
2019-04-05T01:24:33.539Z,999.8
2019-04-05T01:25:35.234Z,999.8
2019-04-05T01:26:36.626Z,999.8
2019-04-05T01:27:38.020Z,999.8
2019-04-05T01:28:39.556Z,999.9
2019-04-05T01:29:40.951Z,999.9
2019-04-05T01:30:42.344Z,999.8
2019-04-05T01:31:43.882Z,999.8
2019-04-05T01:32:45.273Z,999.9
2019-04-05T01:33:46.666Z,999.8
2019-04-05T01:34:48.200Z,999.8
2019-04-05T01:35:49.592Z,999.8
2019-04-05T01:36:51.285Z,999.8
2019-04-05T01:37:52.678Z,999.9
2019-04-05T01:38:54.370Z,999.9
2019-04-05T01:39:55.762Z,999.9
2019-04-05T01:40:57.455Z,1000.0
2019-04-05T01:41:58.851Z,1000.0
2019-04-05T01:43:00.541Z,1000.0
2019-04-05T01:44:01.930Z,1000.0
2019-04-05T01:45:03.345Z,1000.0
2019-04-05T01:46:04.871Z,1000.0
2019-04-05T01:47:06.258Z,1000.0
2019-04-05T01:48:07.650Z,1000.0
2019-04-05T01:49:09.195Z,1000.1
2019-04-05T01:50:10.587Z,1000.1
2019-04-05T01:51:11.988Z,1000.1
2019-04-05T01:52:13.510Z,1000.1
2019-04-05T01:53:14.899Z,1000.1
2019-04-05T01:54:16.291Z,1000.1
2019-04-05T01:55:17.830Z,1000.1
2019-04-05T01:56:19.224Z,1000.1
2019-04-05T01:57:20.915Z,1000.2
2019-04-05T01:58:22.310Z,1000.2
2019-04-05T01:59:23.711Z,1000.2
2019-04-05T02:00:25.251Z,1000.2
2019-04-05T02:01:26.650Z,1000.2
2019-04-05T02:02:28.049Z,1000.2
2019-04-05T02:03:29.558Z,1000.2
2019-04-05T02:04:30.956Z,1000.2
2019-04-05T02:05:32.643Z,1000.1
2019-04-05T02:06:34.040Z,1000.2
2019-04-05T02:07:35.731Z,1000.1
2019-04-05T02:08:37.124Z,1000.2
2019-04-05T02:09:38.816Z,1000.2
2019-04-05T02:10:40.208Z,1000.2
2019-04-05T02:11:41.901Z,1000.2
2019-04-05T02:12:43.295Z,1000.3
2019-04-05T02:13:44.709Z,1000.2
2019-04-05T02:14:46.223Z,1000.3
2019-04-05T02:15:47.613Z,1000.2
2019-04-05T02:16:49.019Z,1000.3
2019-04-05T02:17:50.544Z,1000.4
2019-04-05T02:18:51.941Z,1000.4
2019-04-05T02:19:53.630Z,1000.4
2019-04-05T02:20:55.163Z,1000.5
2019-04-05T02:21:56.716Z,1000.4
2019-04-05T02:22:58.130Z,1000.4
2019-04-05T02:23:59.539Z,1000.3
2019-04-05T02:25:01.243Z,1000.3
2019-04-05T02:26:02.635Z,1000.3
2019-04-05T02:27:04.028Z,1000.2
2019-04-05T02:28:05.565Z,1000.2
2019-04-05T02:29:06.954Z,1000.2
2019-04-05T02:30:08.477Z,1000.2
2019-04-05T02:31:10.092Z,1000.2
2019-04-05T02:32:11.589Z,1000.1
2019-04-05T02:33:12.977Z,1000.1
2019-04-05T02:34:14.606Z,1000.1
2019-04-05T02:35:16.010Z,1000.2
2019-04-05T02:36:17.400Z,1000.1
2019-04-05T02:37:18.942Z,1000.1
2019-04-05T02:38:20.335Z,1000.1
2019-04-05T02:39:21.727Z,1000.1
2019-04-05T02:40:23.260Z,1000.1
2019-04-05T02:41:24.658Z,1000.1
2019-04-05T02:42:26.349Z,1000.1
2019-04-05T02:43:27.739Z,1000.1
2019-04-05T02:44:29.131Z,1000.1
2019-04-05T02:45:30.664Z,1000.1
2019-04-05T02:46:32.061Z,1000.1
2019-04-05T02:47:33.467Z,1000.1
2019-04-05T02:48:34.995Z,1000.0
2019-04-05T02:49:36.386Z,1000.0
2019-04-05T02:50:38.075Z,1000.0
2019-04-05T02:51:39.466Z,1000.0
2019-04-05T02:52:41.162Z,1000.0
2019-04-05T02:53:42.558Z,1000.0
2019-04-05T02:54:43.953Z,1000.0
2019-04-05T02:55:45.658Z,1000.0
2019-04-05T02:56:47.051Z,1000.0
2019-04-05T02:57:48.443Z,1000.0
2019-04-05T02:58:50.028Z,1000.0
2019-04-05T02:59:51.404Z,1000.0
2019-04-05T03:00:52.794Z,999.9
2019-04-05T03:01:54.330Z,999.9
2019-04-05T03:02:55.728Z,1000.0
2019-04-05T03:03:57.118Z,999.9
2019-04-05T03:04:58.652Z,999.9
2019-04-05T03:06:00.044Z,999.9
2019-04-05T03:07:01.739Z,999.9
2019-04-05T03:08:03.130Z,999.9
2019-04-05T03:09:04.823Z,999.9
2019-04-05T03:10:06.299Z,1000.0
2019-04-05T03:11:07.929Z,1000.0
2019-04-05T03:12:09.319Z,1000.0
2019-04-05T03:13:10.992Z,1000.0
2019-04-05T03:14:12.385Z,1000.0
2019-04-05T03:15:13.774Z,999.9
2019-04-05T03:16:15.318Z,1000.0
2019-04-05T03:17:16.710Z,999.9
2019-04-05T03:18:18.096Z,1000.0
2019-04-05T03:19:19.634Z,1000.0
2019-04-05T03:20:21.028Z,1000.0
2019-04-05T03:21:22.421Z,1000.1
2019-04-05T03:22:23.962Z,1000.0
2019-04-05T03:23:25.349Z,1000.1
2019-04-05T03:24:26.752Z,1000.0
2019-04-05T03:25:28.277Z,1000.0
2019-04-05T03:27:09.597Z,1000.0
2019-04-05T03:28:10.986Z,1000.0
2019-04-05T03:29:32.954Z,1000.0
2019-04-05T03:30:34.359Z,1000.0
2019-04-05T03:31:56.337Z,1000.1
2019-04-05T03:32:57.709Z,1000.1
2019-04-05T03:34:19.677Z,1000.1
2019-04-05T03:35:21.083Z,1000.1
2019-04-05T03:37:22.565Z,1000.1
2019-04-05T03:38:23.953Z,1000.2
2019-04-05T03:39:45.925Z,1000.1
2019-04-05T03:40:47.316Z,1000.1
2019-04-05T03:41:48.708Z,1000.1
2019-04-05T03:42:50.221Z,1000.1
2019-04-05T03:43:51.611Z,1000.1
2019-04-05T03:44:53.098Z,1000.2
2019-04-05T03:45:54.543Z,1000.2
2019-04-05T03:46:57.703Z,1000.1
2019-04-05T03:47:57.421Z,1000.2
2019-04-05T03:48:58.818Z,1000.2
2019-04-05T03:50:00.209Z,1000.2
2019-04-05T03:51:01.749Z,1000.3
2019-04-05T03:52:03.138Z,1000.2
2019-04-05T03:53:04.557Z,1000.2
2019-04-05T03:54:06.060Z,1000.3
2019-04-05T03:55:07.451Z,1000.2
2019-04-05T03:56:08.841Z,1000.3
2019-04-05T03:57:10.381Z,1000.3
2019-04-05T03:58:11.793Z,1000.2
2019-04-05T03:59:13.171Z,1000.2
2019-04-05T04:00:14.698Z,1000.2
2019-04-05T04:01:16.099Z,1000.2
2019-04-05T04:02:17.490Z,1000.2
2019-04-05T04:03:19.227Z,1000.2
2019-04-05T04:04:20.620Z,1000.2
2019-04-05T04:05:22.018Z,1000.2
2019-04-05T04:06:23.565Z,1000.2
2019-04-05T04:07:24.997Z,1000.1
2019-04-05T04:08:26.456Z,1000.2
2019-04-05T04:09:27.828Z,1000.1
2019-04-05T04:10:29.325Z,1000.1
2019-04-05T04:11:30.713Z,1000.1
2019-04-05T04:12:32.197Z,1000.1
2019-04-05T04:13:33.590Z,1000.1
2019-04-05T04:14:35.076Z,1000.1
2019-04-05T04:15:36.472Z,1000.2
2019-04-05T04:16:37.986Z,1000.2
2019-04-05T04:17:39.353Z,1000.2
2019-04-05T04:18:40.942Z,1000.2
2019-04-05T04:19:42.341Z,1000.1
2019-04-05T04:20:43.730Z,1000.2
2019-04-05T04:21:45.286Z,1000.1
2019-04-05T04:22:48.561Z,1000.1
2019-04-05T04:23:48.015Z,1000.2
2019-04-05T04:24:49.595Z,1000.2
2019-04-05T04:25:51.003Z,1000.2
2019-04-05T04:26:52.566Z,1000.2
2019-04-05T04:27:53.957Z,1000.2
2019-04-05T04:28:55.446Z,1000.2
2019-04-05T04:30:00.191Z,1000.2
2019-04-05T04:30:58.204Z,1000.3
2019-04-05T04:31:59.823Z,1000.3
2019-04-05T04:33:01.214Z,1000.3
2019-04-05T04:34:02.606Z,1000.3
2019-04-05T04:35:04.086Z,1000.3
2019-04-05T04:36:05.491Z,1000.3
2019-04-05T04:37:06.875Z,1000.3
2019-04-05T04:38:08.414Z,1000.4
2019-04-05T04:39:09.805Z,1000.3
2019-04-05T04:40:11.192Z,1000.3
2019-04-05T04:41:12.737Z,1000.4
2019-04-05T04:42:14.126Z,1000.4
2019-04-05T04:43:15.519Z,1000.4
2019-04-05T04:44:17.056Z,1000.5
2019-04-05T04:45:18.444Z,1000.4
2019-04-05T04:46:19.837Z,1000.5
2019-04-05T04:47:26.734Z,1000.5
2019-04-05T04:48:22.733Z,1000.5
2019-04-05T04:49:24.258Z,1000.5
2019-04-05T04:50:25.653Z,1000.5
2019-04-05T04:51:27.045Z,1000.5
2019-04-05T04:52:31.034Z,1000.6
2019-04-05T04:53:29.938Z,1000.6
2019-04-05T04:54:31.330Z,1000.6
2019-04-05T04:55:32.900Z,1000.6
2019-04-05T04:56:34.292Z,1000.6
2019-04-05T04:57:35.788Z,1000.6
2019-04-05T04:58:37.177Z,1000.7
2019-04-05T04:59:38.662Z,1000.7
2019-04-05T05:00:40.057Z,1000.7
2019-04-05T05:01:41.450Z,1000.7
2019-04-05T05:02:43.004Z,1000.7
2019-04-05T05:03:44.397Z,1000.7
2019-04-05T05:04:45.793Z,1000.7
2019-04-05T05:05:47.304Z,1000.7
2019-04-05T05:06:48.697Z,1000.7
2019-04-05T05:07:50.089Z,1000.7
2019-04-05T05:08:51.651Z,1000.7
2019-04-05T05:09:53.025Z,1000.7
2019-04-05T05:10:54.421Z,1000.6
2019-04-05T05:11:55.949Z,1000.7
2019-04-05T05:12:57.346Z,1000.6
2019-04-05T05:13:58.830Z,1000.7
2019-04-05T05:15:00.227Z,1000.7
2019-04-05T05:16:01.710Z,1000.7
2019-04-05T05:17:03.103Z,1000.7
2019-04-05T05:18:04.592Z,1000.7
2019-04-05T05:19:05.987Z,1000.7
2019-04-05T05:20:07.471Z,1000.8
2019-04-05T05:21:08.863Z,1000.8
2019-04-05T05:22:10.260Z,1000.8
2019-04-05T05:23:11.799Z,1000.8
2019-04-05T05:24:13.212Z,1000.8
2019-04-05T05:25:14.587Z,1000.8
2019-04-05T05:26:16.116Z,1000.9
2019-04-05T05:27:17.517Z,1000.9
2019-04-05T05:28:18.904Z,1000.9
2019-04-05T05:29:20.447Z,1001.0
2019-04-05T05:30:21.841Z,1001.0
2019-04-05T05:31:23.236Z,1000.9
2019-04-05T05:32:24.760Z,1000.9
2019-04-05T05:33:26.157Z,1001.0
2019-04-05T05:34:27.641Z,1001.0
2019-04-05T05:35:29.033Z,1000.9
2019-04-05T05:36:30.432Z,1001.0
2019-04-05T05:37:32.905Z,1000.9
2019-04-05T05:38:33.323Z,1000.9
2019-04-05T05:39:34.718Z,1000.9
2019-04-05T05:40:36.290Z,1000.9
2019-04-05T05:41:37.682Z,1000.9
2019-04-05T05:42:39.166Z,1001.0
2019-04-05T05:43:40.563Z,1000.9
2019-04-05T05:44:42.047Z,1000.9
2019-04-05T05:45:43.444Z,1000.9
2019-04-05T05:46:44.928Z,1000.9
2019-04-05T05:47:52.062Z,1001.0
2019-04-05T05:48:47.810Z,1000.9
2019-04-05T05:49:49.204Z,1001.0
2019-04-05T05:50:50.692Z,1001.0
2019-04-05T05:51:52.087Z,1001.0
2019-04-05T05:52:53.572Z,1001.0
2019-04-05T05:53:54.967Z,1001.0
2019-04-05T05:54:56.453Z,1000.9
2019-04-05T05:55:57.857Z,1001.0
2019-04-05T05:56:59.247Z,1000.9
2019-04-05T05:58:00.786Z,1000.9
2019-04-05T05:59:02.184Z,1001.0
2019-04-05T06:00:03.578Z,1001.0
2019-04-05T06:01:05.096Z,1001.0
2019-04-05T06:02:07.382Z,1001.0
2019-04-05T06:03:10.829Z,1001.0
2019-04-05T06:04:12.521Z,1001.0
2019-04-05T06:05:10.798Z,1001.0
2019-04-05T06:06:12.401Z,1001.0
2019-04-05T06:07:13.795Z,1001.0
2019-04-05T06:08:15.486Z,1001.0
2019-04-05T06:09:16.887Z,1001.1
2019-04-05T06:10:18.574Z,1001.0
2019-04-05T06:11:19.971Z,1001.0
2019-04-05T06:12:21.368Z,1001.1
2019-04-05T06:13:22.904Z,1001.0
2019-04-05T06:14:24.297Z,1001.0
2019-04-05T06:15:25.697Z,1001.1
2019-04-05T06:16:27.218Z,1001.1
2019-04-05T06:17:28.622Z,1001.1
2019-04-05T06:18:30.302Z,1001.0
2019-04-05T06:19:31.704Z,1001.0
2019-04-05T06:20:33.290Z,1001.0
2019-04-05T06:21:34.685Z,1001.0
2019-04-05T06:22:36.169Z,1001.0
2019-04-05T06:23:37.570Z,1001.0
2019-04-05T06:24:39.157Z,1001.1
2019-04-05T06:25:40.554Z,1001.1
2019-04-05T06:26:42.168Z,1001.1
2019-04-05T06:27:43.568Z,1001.1
2019-04-05T06:28:45.018Z,1001.2
2019-04-05T06:29:46.510Z,1001.1
2019-04-05T06:30:47.911Z,1001.2
2019-04-05T06:31:49.311Z,1001.1
2019-04-05T06:32:50.781Z,1001.2
2019-04-05T06:33:52.185Z,1001.2
2019-04-05T06:34:53.762Z,1001.2
2019-04-05T06:35:55.161Z,1001.2
2019-04-05T06:36:56.563Z,1001.2
2019-04-05T06:37:58.092Z,1001.2
2019-04-05T06:38:59.496Z,1001.1
2019-04-05T06:40:01.104Z,1001.2
2019-04-05T06:41:03.538Z,1001.2
2019-04-05T06:42:04.935Z,1001.2
2019-04-05T06:43:06.961Z,1001.2
2019-04-05T06:44:07.856Z,1001.3
2019-04-05T06:45:09.256Z,1001.2
2019-04-05T06:46:10.850Z,1001.3
2019-04-05T06:47:12.249Z,1001.2
2019-04-05T06:48:19.536Z,1001.3
2019-04-05T06:49:15.285Z,1001.2
2019-04-05T06:50:16.812Z,1001.2
2019-04-05T06:51:18.211Z,1001.2
2019-04-05T06:52:19.612Z,1001.2
2019-04-05T06:53:21.234Z,1001.3
2019-04-05T06:54:22.666Z,1001.2
2019-04-05T06:55:24.065Z,1001.3
2019-04-05T06:56:25.649Z,1001.3
2019-04-05T06:57:27.050Z,1001.3
2019-04-05T06:58:29.517Z,1001.2
2019-04-05T06:59:30.017Z,1001.3
2019-04-05T07:00:31.519Z,1001.3
2019-04-05T07:01:32.915Z,1001.3
2019-04-05T07:02:34.318Z,1001.3
2019-04-05T07:03:35.837Z,1001.3
2019-04-05T07:04:37.237Z,1001.3
2019-04-05T07:05:38.645Z,1001.4
2019-04-05T07:06:40.162Z,1001.3
2019-04-05T07:07:41.563Z,1001.4
2019-04-05T07:08:53.017Z,1001.4
2019-04-05T07:09:44.483Z,1001.4
2019-04-05T07:10:45.886Z,1001.4
2019-04-05T07:11:47.284Z,1001.4
2019-04-05T07:12:48.847Z,1001.4
2019-04-05T07:13:50.211Z,1001.4
2019-04-05T07:14:51.614Z,1001.5
2019-04-05T07:15:53.125Z,1001.5
2019-04-05T07:16:54.526Z,1001.4
2019-04-05T07:17:55.930Z,1001.4
2019-04-05T07:18:57.448Z,1001.5
2019-04-05T07:19:58.853Z,1001.5
2019-04-05T07:21:00.252Z,1001.4
2019-04-05T07:22:01.774Z,1001.5
2019-04-05T07:23:03.175Z,1001.4
2019-04-05T07:24:04.588Z,1001.5
2019-04-05T07:25:06.092Z,1001.4
2019-04-05T07:26:07.493Z,1001.4
2019-04-05T07:27:08.893Z,1001.4
2019-04-05T07:28:10.413Z,1001.4
2019-04-05T07:29:11.817Z,1001.4
2019-04-05T07:30:13.294Z,1001.4
2019-04-05T07:31:14.703Z,1001.4
2019-04-05T07:32:16.173Z,1001.4
2019-04-05T07:33:17.578Z,1001.4
2019-04-05T07:34:19.058Z,1001.4
2019-04-05T07:35:32.401Z,1001.4
2019-04-05T07:36:21.940Z,1001.4
2019-04-05T07:37:23.343Z,1001.4
2019-04-05T07:38:24.743Z,1001.4
2019-04-05T07:39:26.281Z,1001.4
2019-04-05T07:40:27.663Z,1001.4
2019-04-05T07:41:31.619Z,1001.4
2019-04-05T07:42:30.585Z,1001.4
2019-04-05T07:43:31.984Z,1001.4
2019-04-05T07:44:33.387Z,1001.4
2019-04-05T07:45:34.903Z,1001.4
2019-04-05T07:46:36.302Z,1001.4
2019-04-05T07:47:37.706Z,1001.5
2019-04-05T07:48:44.668Z,1001.5
2019-04-05T07:49:40.590Z,1001.5
2019-04-05T07:50:41.994Z,1001.5
2019-04-05T07:51:43.392Z,1001.5
2019-04-05T07:52:44.797Z,1001.6
2019-04-05T07:53:46.200Z,1001.5
2019-04-05T07:54:47.602Z,1001.5
2019-04-05T07:55:49.001Z,1001.5
2019-04-05T07:56:50.544Z,1001.5
2019-04-05T07:57:51.948Z,1001.5
2019-04-05T07:58:53.428Z,1001.5
2019-04-05T07:59:54.829Z,1001.6
2019-04-05T08:00:56.308Z,1001.6
2019-04-05T08:01:57.709Z,1001.6
2019-04-05T08:02:59.113Z,1001.6
2019-04-05T08:04:00.630Z,1001.6
2019-04-05T08:05:02.035Z,1001.7
2019-04-05T08:06:03.433Z,1001.6
2019-04-05T08:07:04.951Z,1001.7
2019-04-05T08:08:06.352Z,1001.6
2019-04-05T08:09:07.756Z,1001.6
2019-04-05T08:10:09.271Z,1001.6
2019-04-05T08:11:10.676Z,1001.6
2019-04-05T08:12:12.083Z,1001.6
2019-04-05T08:13:13.684Z,1001.6
2019-04-05T08:14:17.754Z,1001.7
2019-04-05T08:15:16.473Z,1001.6
2019-04-05T08:16:17.878Z,1001.5
2019-04-05T08:17:19.356Z,1001.6
2019-04-05T08:18:20.762Z,1001.6
2019-04-05T08:19:22.238Z,1001.5
2019-04-05T08:20:25.271Z,1001.6
2019-04-05T08:21:25.213Z,1001.6
2019-04-05T08:22:26.638Z,1001.6
2019-04-05T08:23:28.214Z,1001.6
2019-04-05T08:24:29.618Z,1001.7
2019-04-05T08:25:31.174Z,1001.7
2019-04-05T08:26:32.576Z,1001.7
2019-04-05T08:27:34.262Z,1001.7
2019-04-05T08:28:35.656Z,1001.7
2019-04-05T08:29:37.066Z,1001.8
2019-04-05T08:30:38.585Z,1001.7
2019-04-05T08:31:40.002Z,1001.7
2019-04-05T08:32:41.406Z,1001.7
2019-04-05T08:33:43.031Z,1001.7
2019-04-05T08:34:44.419Z,1001.7
2019-04-05T08:35:45.823Z,1001.7
2019-04-05T08:36:47.431Z,1001.7
2019-04-05T08:37:48.829Z,1001.7
2019-04-05T08:38:50.235Z,1001.7
2019-04-05T08:39:51.756Z,1001.8
2019-04-05T08:40:53.176Z,1001.8
2019-04-05T08:41:54.842Z,1001.8
2019-04-05T08:42:56.243Z,1001.8
2019-04-05T08:43:57.642Z,1001.8
2019-04-05T08:44:59.160Z,1001.8
2019-04-05T08:46:00.563Z,1001.7
2019-04-05T08:47:01.986Z,1001.7
2019-04-05T08:48:03.688Z,1001.6
2019-04-05T08:49:10.527Z,1001.7
2019-04-05T08:50:06.568Z,1001.8
2019-04-05T08:51:07.993Z,1001.8
2019-04-05T08:52:09.648Z,1001.7
2019-04-05T08:53:11.057Z,1001.7
2019-04-05T08:54:12.786Z,1001.7
2019-04-05T08:55:14.193Z,1001.7
2019-04-05T08:56:15.826Z,1001.7
2019-04-05T08:57:17.232Z,1001.8
2019-04-05T08:58:18.912Z,1001.8
2019-04-05T08:59:20.315Z,1001.8
2019-04-05T09:00:21.979Z,1001.8
2019-04-05T09:01:23.382Z,1001.8
2019-04-05T09:02:24.994Z,1001.8
2019-04-05T09:03:26.425Z,1001.8
2019-04-05T09:04:27.959Z,1001.8
2019-04-05T09:05:29.362Z,1001.8
2019-04-05T09:06:31.050Z,1001.8
2019-04-05T09:07:32.453Z,1001.8
2019-04-05T09:08:34.129Z,1001.8
2019-04-05T09:09:35.591Z,1001.8
2019-04-05T09:10:36.977Z,1001.8
2019-04-05T09:11:38.571Z,1001.8
2019-04-05T09:12:39.975Z,1001.8
2019-04-05T09:13:41.377Z,1001.7
2019-04-05T09:14:42.978Z,1001.7
2019-04-05T09:15:44.600Z,1001.8
2019-04-05T09:16:46.265Z,1001.8
2019-04-05T09:17:47.669Z,1001.8
2019-04-05T09:18:49.563Z,1001.8
2019-04-05T09:19:52.560Z,1001.9
2019-04-05T09:20:52.087Z,1001.9
2019-04-05T09:21:53.746Z,1001.9
2019-04-05T09:22:55.150Z,1001.8
2019-04-05T09:23:59.090Z,1001.8
2019-04-05T09:24:58.159Z,1001.9
2019-04-05T09:25:59.565Z,1001.9
2019-04-05T09:27:01.081Z,1001.8
2019-04-05T09:28:02.513Z,1001.8
2019-04-05T09:29:03.961Z,1001.8
2019-04-05T09:30:05.608Z,1001.9
2019-04-05T09:31:07.011Z,1001.9
2019-04-05T09:32:08.417Z,1001.9
2019-04-05T09:33:09.956Z,1001.8
2019-04-05T09:34:11.360Z,1001.9
2019-04-05T09:35:12.761Z,1001.9
2019-04-05T09:36:14.464Z,1001.8
2019-04-05T09:37:15.872Z,1001.8
2019-04-05T09:38:17.459Z,1001.9
2019-04-05T09:39:18.860Z,1001.9
2019-04-05T09:40:21.263Z,1001.9
2019-04-05T09:41:21.780Z,1001.9
2019-04-05T09:42:23.186Z,1002.0
2019-04-05T09:43:24.611Z,1001.9
2019-04-05T09:44:26.185Z,1001.8
2019-04-05T09:45:27.586Z,1001.8
2019-04-05T09:46:28.988Z,1001.8
2019-04-05T09:47:30.505Z,1001.8
2019-04-05T09:48:31.907Z,1001.8
2019-04-05T09:49:37.043Z,1001.8
2019-04-05T09:50:34.826Z,1001.8
2019-04-05T09:51:36.232Z,1001.9
2019-04-05T09:52:39.960Z,1001.9
2019-04-05T09:53:39.343Z,1001.9
2019-04-05T09:54:40.755Z,1001.9
2019-04-05T09:55:42.445Z,1001.9
2019-04-05T09:56:43.912Z,1001.9
2019-04-05T09:57:45.315Z,1002.0
2019-04-05T09:58:46.885Z,1002.0
2019-04-05T09:59:48.299Z,1001.9
2019-04-05T10:00:49.691Z,1002.0
2019-04-05T10:01:51.289Z,1001.9
2019-04-05T10:02:52.695Z,1001.9
2019-04-05T10:03:54.099Z,1001.9
2019-04-05T10:04:55.606Z,1001.8
2019-04-05T10:05:57.016Z,1001.8
2019-04-05T10:06:58.423Z,1001.7
2019-04-05T10:07:59.931Z,1001.7
2019-04-05T10:09:01.433Z,1001.6
2019-04-05T10:10:02.844Z,1001.7
2019-04-05T10:11:04.391Z,1001.7
2019-04-05T10:12:05.798Z,1001.7
2019-04-05T10:13:09.592Z,1001.7
2019-04-05T10:14:08.780Z,1001.7
2019-04-05T10:15:10.180Z,1001.7
2019-04-05T10:16:11.637Z,1001.6
2019-04-05T10:17:13.303Z,1001.6
2019-04-05T10:18:14.707Z,1001.7
2019-04-05T10:19:16.108Z,1001.6
2019-04-05T10:20:17.625Z,1001.6
2019-04-05T10:21:19.031Z,1001.7
2019-04-05T10:22:20.433Z,1001.6
2019-04-05T10:23:22.008Z,1001.7
2019-04-05T10:24:23.521Z,1001.6
2019-04-05T10:25:24.923Z,1001.6
2019-04-05T10:26:26.473Z,1001.6
2019-04-05T10:27:27.879Z,1001.6
2019-04-05T10:28:29.557Z,1001.6
2019-04-05T10:29:30.956Z,1001.6
2019-04-05T10:30:32.644Z,1001.6
2019-04-05T10:31:34.047Z,1001.7
2019-04-05T10:32:35.731Z,1001.7
2019-04-05T10:33:37.135Z,1001.7
2019-04-05T10:34:38.817Z,1001.7
2019-04-05T10:35:40.224Z,1001.8
2019-04-05T10:36:41.927Z,1001.8
2019-04-05T10:37:43.328Z,1001.8
2019-04-05T10:38:44.988Z,1001.8
2019-04-05T10:39:46.394Z,1001.8
2019-04-05T10:40:47.796Z,1001.8
2019-04-05T10:42:02.171Z,1001.9
2019-04-05T10:42:50.673Z,1001.9
2019-04-05T10:43:52.075Z,1001.9
2019-04-05T10:44:53.569Z,1001.8
2019-04-05T10:45:55.014Z,1001.9
2019-04-05T10:46:56.516Z,1001.8
2019-04-05T10:47:57.947Z,1001.8
2019-04-05T10:48:59.595Z,1001.9
2019-04-05T10:50:03.231Z,1001.8
2019-04-05T10:51:02.681Z,1001.8
2019-04-05T10:52:04.084Z,1001.7
2019-04-05T10:53:05.692Z,1001.7
2019-04-05T10:54:09.292Z,1001.6
2019-04-05T10:55:08.716Z,1001.6
2019-04-05T10:56:10.111Z,1001.7
2019-04-05T10:57:11.660Z,1001.6
2019-04-05T10:58:13.069Z,1001.7
2019-04-05T10:59:14.615Z,1001.7
2019-04-05T11:00:16.014Z,1001.7
2019-04-05T11:01:17.626Z,1001.8
2019-04-05T11:02:19.036Z,1001.8
2019-04-05T11:03:20.539Z,1001.8
2019-04-05T11:04:21.944Z,1001.8
2019-04-05T11:05:23.399Z,1001.9
2019-04-05T11:06:24.802Z,1001.9
2019-04-05T11:07:26.345Z,1001.8
2019-04-05T11:08:27.763Z,1001.8
2019-04-05T11:09:29.367Z,1001.8
2019-04-05T11:10:30.815Z,1001.8
2019-04-05T11:11:32.309Z,1001.8
2019-04-05T11:12:33.709Z,1001.8
2019-04-05T11:13:35.395Z,1001.8
2019-04-05T11:14:36.799Z,1001.7
2019-04-05T11:15:38.264Z,1001.7
2019-04-05T11:16:39.926Z,1001.7
2019-04-05T11:17:42.401Z,1001.6
2019-04-05T11:18:45.016Z,1001.6
2019-04-05T11:19:44.174Z,1001.6
2019-04-05T11:20:48.998Z,1001.7
2019-04-05T11:21:48.509Z,1001.7
2019-04-05T11:22:50.174Z,1001.7
2019-04-05T11:23:49.981Z,1001.8
2019-04-05T11:24:51.384Z,1001.7
2019-04-05T11:25:52.894Z,1001.7
2019-04-05T11:26:54.287Z,1001.8
2019-04-05T11:27:55.691Z,1001.7
2019-04-05T11:28:57.133Z,1001.7
2019-04-05T11:29:58.532Z,1001.7
2019-04-05T11:30:59.961Z,1001.7
2019-04-05T11:32:01.533Z,1001.8
2019-04-05T11:33:02.941Z,1001.7
2019-04-05T11:34:04.383Z,1001.7
2019-04-05T11:35:06.001Z,1001.7
2019-04-05T11:36:07.415Z,1001.7
2019-04-05T11:37:08.949Z,1001.6
2019-04-05T11:38:10.360Z,1001.6
2019-04-05T11:39:12.021Z,1001.6
2019-04-05T11:40:13.464Z,1001.5
2019-04-05T11:41:14.828Z,1001.6
2019-04-05T11:42:16.342Z,1001.6
2019-04-05T11:43:17.746Z,1001.6
2019-04-05T11:44:19.275Z,1001.6
2019-04-05T11:45:20.925Z,1001.6
2019-04-05T11:46:22.341Z,1001.6
2019-04-05T11:47:23.954Z,1001.6
2019-04-05T11:48:25.359Z,1001.5
2019-04-05T11:49:27.039Z,1001.5
2019-04-05T11:50:34.426Z,1001.5
2019-04-05T11:51:29.878Z,1001.5
2019-04-05T11:52:31.502Z,1001.6
2019-04-05T11:53:32.901Z,1001.5
2019-04-05T11:54:34.306Z,1001.6
2019-04-05T11:55:35.887Z,1001.6
2019-04-05T11:56:37.289Z,1001.6
2019-04-05T11:57:41.051Z,1001.6
2019-04-05T11:58:40.366Z,1001.6
2019-04-05T11:59:41.854Z,1001.6
2019-04-05T12:00:43.286Z,1001.7
2019-04-05T12:01:44.692Z,1001.7
2019-04-05T12:02:46.176Z,1001.7
2019-04-05T12:03:47.578Z,1001.6
2019-04-05T12:04:48.994Z,1001.7
2019-04-05T12:05:50.498Z,1001.6
2019-04-05T12:06:52.555Z,1001.7
2019-04-05T12:07:56.298Z,1001.6
2019-04-05T12:08:54.816Z,1001.6
2019-04-05T12:09:56.246Z,1001.6
2019-04-05T12:10:57.667Z,1001.6
2019-04-05T12:11:59.344Z,1001.6
2019-04-05T12:13:00.747Z,1001.6
2019-04-05T12:14:02.429Z,1001.6
2019-04-05T12:15:06.148Z,1001.5
2019-04-05T12:16:06.105Z,1001.5
2019-04-05T12:17:09.532Z,1001.6
2019-04-05T12:18:08.192Z,1001.5
2019-04-05T12:19:09.594Z,1001.5
2019-04-05T12:20:11.278Z,1001.4
2019-04-05T12:21:12.681Z,1001.5
2019-04-05T12:22:14.364Z,1001.5
2019-04-05T12:23:15.768Z,1001.5
2019-04-05T12:24:17.495Z,1001.5
2019-04-05T12:25:18.912Z,1001.5
2019-04-05T12:26:20.534Z,1001.5
2019-04-05T12:27:21.939Z,1001.5
2019-04-05T12:28:23.630Z,1001.4
2019-04-05T12:29:25.026Z,1001.5
2019-04-05T12:30:26.708Z,1001.4
2019-04-05T12:31:28.151Z,1001.4
2019-04-05T12:32:34.530Z,1001.4
2019-04-05T12:33:31.163Z,1001.4
2019-04-05T12:34:32.680Z,1001.3
2019-04-05T12:35:34.087Z,1001.3
2019-04-05T12:36:35.487Z,1001.3
2019-04-05T12:37:49.161Z,1001.3
2019-04-05T12:38:38.357Z,1001.3
2019-04-05T12:39:39.764Z,1001.4
2019-04-05T12:40:41.409Z,1001.3
2019-04-05T12:41:44.892Z,1001.3
2019-04-05T12:42:44.060Z,1001.3
2019-04-05T12:43:45.639Z,1001.3
2019-04-05T12:44:47.047Z,1001.3
2019-04-05T12:45:48.747Z,1001.3
2019-04-05T12:46:50.128Z,1001.3
2019-04-05T12:47:51.809Z,1001.3
2019-04-05T12:48:53.213Z,1001.2
2019-04-05T12:49:54.895Z,1001.2
2019-04-05T12:51:01.399Z,1001.2
2019-04-05T12:51:57.664Z,1001.2
2019-04-05T12:52:59.233Z,1001.2